createdAt,value
2018-04-11T00:00:29.076Z,14.48
2018-04-11T00:01:29.112Z,14.11
2018-04-11T00:02:28.876Z,14.07
2018-04-11T00:03:29.136Z,13.99
2018-04-11T00:04:29.153Z,14.04
2018-04-11T00:05:29.170Z,14.04
2018-04-11T00:06:28.940Z,13.78
2018-04-11T00:07:28.962Z,13.74
2018-04-11T00:08:28.980Z,13.85
2018-04-11T00:09:29.001Z,13.9
2018-04-11T00:10:29.068Z,13.89
2018-04-11T00:11:29.301Z,13.83
2018-04-11T00:12:29.062Z,13.77
2018-04-11T00:13:29.356Z,14.05
2018-04-11T00:14:29.365Z,13.92
2018-04-11T00:15:29.432Z,13.81
2018-04-11T00:16:29.402Z,13.75
2018-04-11T00:17:29.169Z,13.7
2018-04-11T00:18:29.438Z,13.87
2018-04-11T00:19:29.213Z,13.96
2018-04-11T00:20:29.225Z,13.96
2018-04-11T00:21:29.251Z,13.85
2018-04-11T00:22:29.559Z,13.62
2018-04-11T00:23:29.547Z,13.75
2018-04-11T00:24:29.313Z,13.62
2018-04-11T00:25:29.587Z,13.56
2018-04-11T00:26:29.606Z,13.56
2018-04-11T00:27:29.371Z,13.71
2018-04-11T00:28:29.650Z,13.9
2018-04-11T00:29:29.669Z,13.86
2018-04-11T00:30:29.737Z,13.77
2018-04-11T00:31:29.715Z,13.75
2018-04-11T00:32:29.729Z,13.87
2018-04-11T00:33:29.747Z,13.72
2018-04-11T00:34:29.508Z,13.75
2018-04-11T00:35:29.801Z,13.77
2018-04-11T00:36:29.551Z,13.83
2018-04-11T00:37:29.818Z,13.72
2018-04-11T00:38:29.854Z,13.7
2018-04-11T00:39:29.862Z,13.57
2018-04-11T00:40:29.623Z,13.59
2018-04-11T00:41:29.644Z,13.65
2018-04-11T00:42:29.913Z,13.54
2018-04-11T00:43:29.944Z,13.35
2018-04-11T00:44:29.705Z,13.28
2018-04-11T00:45:30.033Z,13.28
2018-04-11T00:46:30.119Z,13.25
2018-04-11T00:47:29.767Z,13.25
2018-04-11T00:48:30.041Z,13.18
2018-04-11T00:49:29.857Z,13.18
2018-04-11T00:50:29.830Z,13.16
2018-04-11T00:51:29.846Z,13.2
2018-04-11T00:52:30.126Z,13.27
2018-04-11T00:53:30.144Z,13.22
2018-04-11T00:54:30.166Z,13.2
2018-04-11T00:55:29.949Z,13.13
2018-04-11T00:56:30.206Z,13.13
2018-04-11T00:57:30.221Z,13.12
2018-04-11T00:58:30.248Z,13.16
2018-04-11T00:59:30.015Z,13.12
2018-04-11T01:00:29.823Z,12.95
2018-04-11T01:01:30.045Z,13.04
2018-04-11T01:02:30.321Z,13.05
2018-04-11T01:03:30.345Z,13.15
2018-04-11T01:04:30.102Z,13.28
2018-04-11T01:05:30.123Z,13.33
2018-04-11T01:06:30.399Z,13.41
2018-04-11T01:07:30.415Z,13.56
2018-04-11T01:08:30.179Z,13.52
2018-04-11T01:09:30.455Z,13.5
2018-04-11T01:10:30.490Z,13.38
2018-04-11T01:11:30.500Z,13.16
2018-04-11T01:12:30.515Z,13.28
2018-04-11T01:13:30.533Z,13.15
2018-04-11T01:14:30.565Z,13.01
2018-04-11T01:15:30.628Z,13.12
2018-04-11T01:16:30.600Z,13.27
2018-04-11T01:17:30.617Z,13.28
2018-04-11T01:18:30.632Z,13.41
2018-04-11T01:19:30.401Z,13.49
2018-04-11T01:20:30.421Z,13.5
2018-04-11T01:21:30.692Z,13.59
2018-04-11T01:22:30.457Z,13.42
2018-04-11T01:23:30.477Z,13.13
2018-04-11T01:24:30.496Z,13.19
2018-04-11T01:25:30.524Z,13.09
2018-04-11T01:26:30.798Z,13.09
2018-04-11T01:27:30.564Z,12.87
2018-04-11T01:28:30.578Z,13.03
2018-04-11T01:29:30.601Z,13.13
2018-04-11T01:30:30.925Z,13.04
2018-04-11T01:31:30.636Z,13.15
2018-04-11T01:32:30.657Z,13.16
2018-04-11T01:33:30.930Z,13.31
2018-04-11T01:34:30.697Z,13.22
2018-04-11T01:35:30.973Z,13.35
2018-04-11T01:36:30.480Z,13.31
2018-04-11T01:37:31.008Z,13.47
2018-04-11T01:38:30.774Z,13.37
2018-04-11T01:39:30.796Z,13.31
2018-04-11T01:40:31.073Z,13.25
2018-04-11T01:41:31.089Z,13.37
2018-04-11T01:42:30.856Z,13.33
2018-04-11T01:43:31.122Z,13.41
2018-04-11T01:44:31.142Z,13.49
2018-04-11T01:45:31.216Z,13.7
2018-04-11T01:46:30.932Z,13.67
2018-04-11T01:47:31.206Z,13.72
2018-04-11T01:48:31.225Z,13.75
2018-04-11T01:49:31.244Z,13.71
2018-04-11T01:50:31.010Z,13.63
2018-04-11T01:51:31.283Z,13.47
2018-04-11T01:52:31.055Z,13.59
2018-04-11T01:53:31.312Z,13.68
2018-04-11T01:54:31.136Z,13.75
2018-04-11T01:55:31.109Z,13.81
2018-04-11T01:56:31.385Z,13.85
2018-04-11T01:57:31.400Z,13.86
2018-04-11T01:58:31.187Z,13.9
2018-04-11T01:59:31.456Z,14
2018-04-11T02:00:31.522Z,13.96
2018-04-11T02:01:31.232Z,13.99
2018-04-11T02:02:31.504Z,14.07
2018-04-11T02:03:31.520Z,14.08
2018-04-11T02:04:31.031Z,14.07
2018-04-11T02:05:31.562Z,14.22
2018-04-11T02:06:31.595Z,14.22
2018-04-11T02:07:31.604Z,14.18
2018-04-11T02:08:31.366Z,14.23
2018-04-11T02:09:31.387Z,14.25
2018-04-11T02:10:31.456Z,14.33
2018-04-11T02:11:31.684Z,14.35
2018-04-11T02:12:31.701Z,14.36
2018-04-11T02:13:31.466Z,14.4
2018-04-11T02:14:31.741Z,14.32
2018-04-11T02:15:31.804Z,14.51
2018-04-11T02:16:31.523Z,14.55
2018-04-11T02:17:31.794Z,14.53
2018-04-11T02:18:31.824Z,14.44
2018-04-11T02:19:31.835Z,14.47
2018-04-11T02:20:31.857Z,14.48
2018-04-11T02:21:31.628Z,14.45
2018-04-11T02:22:31.900Z,14.41
2018-04-11T02:23:31.668Z,14.44
2018-04-11T02:24:31.939Z,14.33
2018-04-11T02:25:31.963Z,14.48
2018-04-11T02:26:31.986Z,14.51
2018-04-11T02:27:32.007Z,14.45
2018-04-11T02:28:32.023Z,14.55
2018-04-11T02:29:32.054Z,14.6
2018-04-11T02:30:32.120Z,14.58
2018-04-11T02:31:31.833Z,14.6
2018-04-11T02:32:32.103Z,14.47
2018-04-11T02:33:32.133Z,14.51
2018-04-11T02:34:32.148Z,14.5
2018-04-11T02:35:32.172Z,14.48
2018-04-11T02:36:31.931Z,14.53
2018-04-11T02:37:32.221Z,14.48
2018-04-11T02:38:32.228Z,14.55
2018-04-11T02:39:32.255Z,14.6
2018-04-11T02:40:32.315Z,14.53
2018-04-11T02:41:32.057Z,14.54
2018-04-11T02:42:32.313Z,14.6
2018-04-11T02:43:32.333Z,14.54
2018-04-11T02:44:32.363Z,14.6
2018-04-11T02:45:32.116Z,14.55
2018-04-11T02:46:32.411Z,14.66
2018-04-11T02:47:32.159Z,14.63
2018-04-11T02:48:32.181Z,14.59
2018-04-11T02:49:32.454Z,14.59
2018-04-11T02:50:32.449Z,14.53
2018-04-11T02:51:32.492Z,14.5
2018-04-11T02:52:32.561Z,14.53
2018-04-11T02:53:32.279Z,14.54
2018-04-11T02:54:32.556Z,14.4
2018-04-11T02:55:32.369Z,14.33
2018-04-11T02:56:32.597Z,14.03
2018-04-11T02:57:32.625Z,14.04
2018-04-11T02:58:32.630Z,13.78
2018-04-11T02:59:32.655Z,13.89
2018-04-11T03:00:32.685Z,13.86
2018-04-11T03:01:32.686Z,13.75
2018-04-11T03:02:32.457Z,13.63
2018-04-11T03:03:32.737Z,13.56
2018-04-11T03:04:32.752Z,13.52
2018-04-11T03:05:32.782Z,13.56
2018-04-11T03:06:32.794Z,13.33
2018-04-11T03:07:32.827Z,13.15
2018-04-11T03:08:32.576Z,13.31
2018-04-11T03:09:32.602Z,13.33
2018-04-11T03:10:32.934Z,13.57
2018-04-11T03:11:32.651Z,13.57
2018-04-11T03:12:32.407Z,13.57
2018-04-11T03:13:32.943Z,13.67
2018-04-11T03:14:32.957Z,13.72
2018-04-11T03:15:32.973Z,13.71
2018-04-11T03:16:32.785Z,13.79
2018-04-11T03:17:32.761Z,13.9
2018-04-11T03:18:33.036Z,13.89
2018-04-11T03:19:33.055Z,13.87
2018-04-11T03:20:32.817Z,13.85
2018-04-11T03:21:33.091Z,14.05
2018-04-11T03:22:32.860Z,14.03
2018-04-11T03:23:33.136Z,14.12
2018-04-11T03:24:33.165Z,14.11
2018-04-11T03:25:32.968Z,13.97
2018-04-11T03:26:33.193Z,14.03
2018-04-11T03:27:32.983Z,13.95
2018-04-11T03:28:33.237Z,13.89
2018-04-11T03:29:32.995Z,13.95
2018-04-11T03:30:33.016Z,13.93
2018-04-11T03:31:33.042Z,13.86
2018-04-11T03:32:33.297Z,13.81
2018-04-11T03:33:33.158Z,13.71
2018-04-11T03:34:33.348Z,13.56
2018-04-11T03:35:33.379Z,13.46
2018-04-11T03:36:33.132Z,13.31
2018-04-11T03:37:33.151Z,13.3
2018-04-11T03:38:33.428Z,13.35
2018-04-11T03:39:33.449Z,13.39
2018-04-11T03:40:33.266Z,13.38
2018-04-11T03:41:33.488Z,13.47
2018-04-11T03:42:33.256Z,13.59
2018-04-11T03:43:33.523Z,13.5
2018-04-11T03:44:33.571Z,13.39
2018-04-11T03:45:33.567Z,13.27
2018-04-11T03:46:33.592Z,13.28
2018-04-11T03:47:33.603Z,13.3
2018-04-11T03:48:33.370Z,13.25
2018-04-11T03:49:33.645Z,13.15
2018-04-11T03:50:33.408Z,13.15
2018-04-11T03:51:33.683Z,13.15
2018-04-11T03:52:33.701Z,13.05
2018-04-11T03:53:33.726Z,12.94
2018-04-11T03:54:33.743Z,12.87
2018-04-11T03:55:33.812Z,12.83
2018-04-11T03:56:33.785Z,12.91
2018-04-11T03:57:33.293Z,12.8
2018-04-11T03:58:33.822Z,12.9
2018-04-11T03:59:33.602Z,12.98
2018-04-11T04:00:33.869Z,13.11
2018-04-11T04:01:33.641Z,13.27
2018-04-11T04:02:33.899Z,13.37
2018-04-11T04:03:33.662Z,13.42
2018-04-11T04:04:33.431Z,13.42
2018-04-11T04:05:33.962Z,13.54
2018-04-11T04:06:33.469Z,13.65
2018-04-11T04:07:33.736Z,13.59
2018-04-11T04:08:34.010Z,13.68
2018-04-11T04:09:34.040Z,13.59
2018-04-11T04:10:34.125Z,13.6
2018-04-11T04:11:34.081Z,13.62
2018-04-11T04:12:33.845Z,13.62
2018-04-11T04:13:33.621Z,13.65
2018-04-11T04:14:34.148Z,13.6
2018-04-11T04:15:34.154Z,13.7
2018-04-11T04:16:34.170Z,13.49
2018-04-11T04:17:34.194Z,13.31
2018-04-11T04:18:34.215Z,13.31
2018-04-11T04:19:34.260Z,13.09
2018-04-11T04:20:34.252Z,13.05
2018-04-11T04:21:34.017Z,13.08
2018-04-11T04:22:34.296Z,13.16
2018-04-11T04:23:34.315Z,13.16
2018-04-11T04:24:34.329Z,13.33
2018-04-11T04:25:34.405Z,13.28
2018-04-11T04:26:34.124Z,13.27
2018-04-11T04:27:34.398Z,13.28
2018-04-11T04:28:34.411Z,13.37
2018-04-11T04:29:34.204Z,13.35
2018-04-11T04:30:34.454Z,13.27
2018-04-11T04:31:34.469Z,13.25
2018-04-11T04:32:34.490Z,13.15
2018-04-11T04:33:34.260Z,13.09
2018-04-11T04:34:34.278Z,13.05
2018-04-11T04:35:34.569Z,12.93
2018-04-11T04:36:34.571Z,12.79
2018-04-11T04:37:34.603Z,12.9
2018-04-11T04:38:34.354Z,12.91
2018-04-11T04:39:34.633Z,12.95
2018-04-11T04:40:34.802Z,12.76
2018-04-11T04:41:34.673Z,12.6
2018-04-11T04:42:34.440Z,12.64
2018-04-11T04:43:34.610Z,12.61
2018-04-11T04:44:34.472Z,12.62
2018-04-11T04:45:34.748Z,12.75
2018-04-11T04:46:34.770Z,12.79
2018-04-11T04:47:34.534Z,12.85
2018-04-11T04:48:34.812Z,13
2018-04-11T04:49:34.832Z,12.95
2018-04-11T04:50:34.849Z,13
2018-04-11T04:51:34.870Z,13.03
2018-04-11T04:52:34.626Z,13
2018-04-11T04:53:34.653Z,13.05
2018-04-11T04:54:34.670Z,13.12
2018-04-11T04:55:34.738Z,13.2
2018-04-11T04:56:34.960Z,13.19
2018-04-11T04:57:34.727Z,13.12
2018-04-11T04:58:35.018Z,13.27
2018-04-11T04:59:35.026Z,13.16
2018-04-11T05:00:35.046Z,13.15
2018-04-11T05:01:35.063Z,13.01
2018-04-11T05:02:35.085Z,13.04
2018-04-11T05:03:34.594Z,12.94
2018-04-11T05:04:35.120Z,12.93
2018-04-11T05:05:34.886Z,12.97
2018-04-11T05:06:35.190Z,12.94
2018-04-11T05:07:35.002Z,12.91
2018-04-11T05:08:35.199Z,12.86
2018-04-11T05:09:34.963Z,13
2018-04-11T05:10:35.238Z,12.95
2018-04-11T05:11:35.253Z,13.01
2018-04-11T05:12:35.280Z,13.15
2018-04-11T05:13:35.046Z,13.05
2018-04-11T05:14:35.326Z,12.97
2018-04-11T05:15:35.341Z,12.85
2018-04-11T05:16:35.352Z,12.93
2018-04-11T05:17:35.378Z,13.11
2018-04-11T05:18:35.398Z,13.08
2018-04-11T05:19:35.418Z,12.98
2018-04-11T05:20:35.434Z,13.05
2018-04-11T05:21:35.453Z,13.08
2018-04-11T05:22:35.485Z,13.18
2018-04-11T05:23:35.240Z,13.13
2018-04-11T05:24:35.512Z,13.28
2018-04-11T05:25:35.583Z,13.25
2018-04-11T05:26:35.303Z,13.13
2018-04-11T05:27:35.583Z,13.13
2018-04-11T05:28:35.336Z,13.11
2018-04-11T05:29:35.610Z,13.13
2018-04-11T05:30:35.380Z,13.12
2018-04-11T05:31:35.648Z,13.13
2018-04-11T05:32:35.415Z,13.09
2018-04-11T05:33:35.435Z,13.25
2018-04-11T05:34:35.455Z,13.33
2018-04-11T05:35:35.728Z,13.25
2018-04-11T05:36:35.749Z,13.35
2018-04-11T05:37:35.772Z,13.27
2018-04-11T05:38:35.792Z,13.33
2018-04-11T05:39:35.809Z,13.42
2018-04-11T05:40:35.381Z,13.52
2018-04-11T05:41:35.849Z,13.49
2018-04-11T05:42:35.889Z,13.39
2018-04-11T05:43:35.894Z,13.41
2018-04-11T05:44:35.911Z,13.47
2018-04-11T05:45:35.932Z,13.35
2018-04-11T05:46:35.948Z,13.42
2018-04-11T05:47:35.974Z,13.31
2018-04-11T05:48:35.739Z,13.3
2018-04-11T05:49:36.010Z,13.3
2018-04-11T05:50:36.026Z,13.23
2018-04-11T05:51:36.054Z,13.27
2018-04-11T05:52:36.069Z,13.27
2018-04-11T05:53:36.087Z,13.28
2018-04-11T05:54:36.110Z,13.37
2018-04-11T05:55:35.925Z,13.44
2018-04-11T05:56:35.890Z,13.47
2018-04-11T05:57:35.919Z,13.31
2018-04-11T05:58:35.935Z,13.47
2018-04-11T05:59:36.207Z,13.5
2018-04-11T06:00:36.354Z,13.42
2018-04-11T06:01:35.734Z,13.42
2018-04-11T06:02:36.254Z,13.46
2018-04-11T06:03:36.028Z,13.49
2018-04-11T06:04:36.310Z,13.27
2018-04-11T06:05:36.325Z,13.33
2018-04-11T06:06:36.355Z,13.37
2018-04-11T06:07:36.377Z,13.3
2018-04-11T06:08:36.142Z,13.33
2018-04-11T06:09:36.157Z,13.41
2018-04-11T06:10:36.481Z,13.33
2018-04-11T06:11:36.448Z,13.38
2018-04-11T06:12:36.467Z,13.35
2018-04-11T06:13:36.489Z,13.35
2018-04-11T06:14:36.510Z,13.44
2018-04-11T06:15:36.022Z,13.49
2018-04-11T06:16:36.547Z,13.6
2018-04-11T06:17:36.580Z,13.59
2018-04-11T06:18:36.597Z,13.6
2018-04-11T06:19:36.609Z,13.47
2018-04-11T06:20:36.120Z,13.39
2018-04-11T06:21:36.397Z,13.49
2018-04-11T06:22:36.411Z,13.52
2018-04-11T06:23:36.184Z,13.54
2018-04-11T06:24:36.709Z,13.53
2018-04-11T06:25:36.726Z,13.6
2018-04-11T06:26:36.783Z,13.6
2018-04-11T06:27:36.507Z,13.71
2018-04-11T06:28:36.779Z,13.83
2018-04-11T06:29:36.298Z,13.83
2018-04-11T06:30:36.833Z,13.86
2018-04-11T06:31:36.593Z,13.77
2018-04-11T06:32:36.871Z,13.79
2018-04-11T06:33:36.636Z,13.83
2018-04-11T06:34:36.656Z,13.77
2018-04-11T06:35:36.933Z,13.78
2018-04-11T06:36:36.440Z,13.87
2018-04-11T06:37:36.966Z,13.87
2018-04-11T06:38:36.994Z,14.04
2018-04-11T06:39:37.012Z,14.18
2018-04-11T06:40:36.779Z,14.15
2018-04-11T06:41:36.544Z,14.12
2018-04-11T06:42:36.821Z,14.22
2018-04-11T06:43:37.097Z,14.33
2018-04-11T06:44:37.105Z,14.32
2018-04-11T06:45:36.884Z,14.41
2018-04-11T06:46:36.911Z,14.32
2018-04-11T06:47:37.170Z,14.33
2018-04-11T06:48:36.939Z,14.45
2018-04-11T06:49:37.210Z,14.48
2018-04-11T06:50:37.235Z,14.5
2018-04-11T06:51:37.247Z,14.54
2018-04-11T06:52:37.262Z,14.54
2018-04-11T06:53:36.788Z,14.51
2018-04-11T06:54:37.071Z,14.63
2018-04-11T06:55:37.346Z,14.66
2018-04-11T06:56:37.409Z,14.84
2018-04-11T06:57:37.377Z,14.72
2018-04-11T06:58:37.140Z,14.84
2018-04-11T06:59:37.464Z,14.86
2018-04-11T07:00:37.440Z,14.96
2018-04-11T07:01:37.515Z,15.03
2018-04-11T07:02:37.227Z,15.06
2018-04-11T07:03:37.497Z,15.07
2018-04-11T07:04:37.264Z,15.17
2018-04-11T07:05:37.587Z,15.27
2018-04-11T07:06:37.553Z,15.19
2018-04-11T07:07:37.585Z,15.29
2018-04-11T07:08:37.348Z,15.28
2018-04-11T07:09:37.724Z,15.37
2018-04-11T07:10:37.640Z,15.33
2018-04-11T07:11:37.405Z,15.39
2018-04-11T07:12:37.682Z,15.42
2018-04-11T07:13:37.705Z,15.35
2018-04-11T07:14:37.731Z,15.36
2018-04-11T07:15:37.754Z,15.54
2018-04-11T07:16:37.836Z,15.49
2018-04-11T07:17:37.543Z,15.54
2018-04-11T07:18:37.308Z,15.57
2018-04-11T07:19:37.839Z,15.39
2018-04-11T07:20:37.604Z,15.39
2018-04-11T07:21:37.887Z,15.58
2018-04-11T07:22:37.647Z,15.37
2018-04-11T07:23:37.669Z,15.52
2018-04-11T07:24:37.950Z,15.55
2018-04-11T07:25:37.967Z,15.59
2018-04-11T07:26:38.000Z,15.64
2018-04-11T07:27:37.755Z,15.84
2018-04-11T07:28:38.033Z,15.79
2018-04-11T07:29:38.045Z,15.97
2018-04-11T07:30:37.814Z,15.97
2018-04-11T07:31:37.631Z,15.91
2018-04-11T07:32:37.856Z,15.88
2018-04-11T07:33:38.130Z,15.76
2018-04-11T07:34:38.153Z,15.97
2018-04-11T07:35:38.177Z,15.98
2018-04-11T07:36:38.195Z,16.08
2018-04-11T07:37:38.219Z,16.13
2018-04-11T07:38:37.990Z,16.13
2018-04-11T07:39:37.754Z,16.13
2018-04-11T07:40:38.029Z,16.29
2018-04-11T07:41:38.419Z,16.43
2018-04-11T07:42:38.350Z,16.51
2018-04-11T07:43:38.101Z,16.53
2018-04-11T07:44:38.124Z,16.5
2018-04-11T07:45:38.404Z,16.53
2018-04-11T07:46:38.216Z,16.66
2018-04-11T07:47:38.447Z,16.65
2018-04-11T07:48:38.211Z,16.71
2018-04-11T07:49:38.502Z,16.61
2018-04-11T07:50:38.251Z,16.66
2018-04-11T07:51:38.280Z,16.66
2018-04-11T07:52:38.541Z,16.61
2018-04-11T07:53:38.612Z,16.71
2018-04-11T07:54:38.810Z,16.69
2018-04-11T07:55:38.622Z,16.78
2018-04-11T07:56:38.389Z,16.9
2018-04-11T07:57:38.669Z,16.96
2018-04-11T07:58:38.685Z,16.91
2018-04-11T07:59:38.454Z,16.75
2018-04-11T08:00:38.735Z,16.65
2018-04-11T08:01:38.591Z,16.64
2018-04-11T08:02:38.517Z,16.76
2018-04-11T08:03:38.919Z,16.87
2018-04-11T08:04:38.310Z,16.97
2018-04-11T08:05:38.586Z,16.94
2018-04-11T08:06:38.907Z,17.08
2018-04-11T08:07:38.896Z,16.93
2018-04-11T08:08:38.912Z,17.05
2018-04-11T08:09:38.942Z,17.09
2018-04-11T08:10:38.697Z,17.05
2018-04-11T08:11:38.870Z,17.14
2018-04-11T08:12:39.002Z,17.11
2018-04-11T08:13:39.018Z,17.16
2018-04-11T08:14:38.848Z,17.09
2018-04-11T08:15:39.076Z,17.29
2018-04-11T08:16:39.093Z,17.27
2018-04-11T08:17:38.868Z,17.41
2018-04-11T08:18:39.134Z,17.34
2018-04-11T08:19:39.163Z,17.27
2018-04-11T08:20:38.922Z,17.38
2018-04-11T08:21:39.295Z,17.33
2018-04-11T08:22:38.734Z,17.45
2018-04-11T08:23:39.244Z,17.52
2018-04-11T08:24:39.012Z,17.71
2018-04-11T08:25:39.292Z,17.71
2018-04-11T08:26:39.059Z,17.74
2018-04-11T08:27:39.323Z,17.85
2018-04-11T08:28:39.367Z,17.87
2018-04-11T08:29:39.129Z,17.92
2018-04-11T08:30:39.404Z,18.07
2018-04-11T08:31:39.433Z,18.07
2018-04-11T08:32:39.447Z,18.25
2018-04-11T08:33:39.473Z,18.16
2018-04-11T08:34:39.456Z,18.23
2018-04-11T08:35:39.266Z,18.33
2018-04-11T08:36:39.600Z,18.31
2018-04-11T08:37:39.567Z,18.38
2018-04-11T08:38:39.341Z,18.34
2018-04-11T08:39:39.364Z,18.2
2018-04-11T08:40:39.651Z,18.28
2018-04-11T08:41:39.417Z,18.29
2018-04-11T08:42:39.684Z,18.23
2018-04-11T08:43:39.722Z,18.29
2018-04-11T08:44:39.487Z,18.34
2018-04-11T08:45:39.768Z,18.34
2018-04-11T08:46:39.779Z,18.53
2018-04-11T08:47:39.550Z,18.58
2018-04-11T08:48:39.841Z,18.59
2018-04-11T08:49:39.597Z,18.56
2018-04-11T08:50:39.363Z,18.5
2018-04-11T08:51:39.644Z,18.44
2018-04-11T08:52:39.781Z,18.55
2018-04-11T08:53:39.700Z,18.65
2018-04-11T08:54:39.953Z,18.86
2018-04-11T08:55:39.973Z,18.84
2018-04-11T08:56:39.748Z,18.95
2018-04-11T08:57:39.776Z,19.02
2018-04-11T08:58:40.148Z,19.08
2018-04-11T08:59:40.066Z,19.15
2018-04-11T09:00:40.092Z,19.31
2018-04-11T09:01:39.865Z,19.41
2018-04-11T09:02:40.142Z,19.4
2018-04-11T09:03:39.669Z,19.51
2018-04-11T09:04:40.254Z,19.14
2018-04-11T09:05:40.229Z,19.07
2018-04-11T09:06:40.267Z,18.98
2018-04-11T09:07:40.276Z,18.96
2018-04-11T09:08:40.098Z,19.15
2018-04-11T09:09:40.321Z,19.22
2018-04-11T09:10:40.095Z,19.29
2018-04-11T09:11:40.364Z,19.31
2018-04-11T09:12:40.396Z,19.36
2018-04-11T09:13:40.417Z,19.49
2018-04-11T09:14:40.441Z,19.36
2018-04-11T09:15:40.216Z,19.59
2018-04-11T09:16:40.245Z,19.58
2018-04-11T09:17:40.259Z,19.76
2018-04-11T09:18:40.285Z,19.86
2018-04-11T09:19:40.713Z,20.18
2018-04-11T09:20:40.596Z,20.32
2018-04-11T09:21:40.103Z,20.36
2018-04-11T09:22:40.379Z,20.52
2018-04-11T09:23:40.716Z,20.56
2018-04-11T09:24:40.690Z,20.8
2018-04-11T09:25:40.715Z,20.8
2018-04-11T09:26:40.483Z,20.97
2018-04-11T09:27:40.256Z,21.27
2018-04-11T09:28:40.787Z,21.55
2018-04-11T09:29:40.814Z,21.66
2018-04-11T09:30:40.591Z,21.72
2018-04-11T09:31:40.625Z,21.95
2018-04-11T09:32:40.651Z,22.07
2018-04-11T09:33:40.669Z,22.28
2018-04-11T09:34:40.949Z,22.48
2018-04-11T09:35:40.992Z,22.51
2018-04-11T09:36:40.751Z,22.57
2018-04-11T09:37:41.036Z,22.7
2018-04-11T09:38:41.119Z,22.85
2018-04-11T09:39:41.091Z,23.08
2018-04-11T09:40:41.115Z,23.31
2018-04-11T09:41:41.145Z,23.59
2018-04-11T09:42:40.937Z,23.47
2018-04-11T09:43:41.215Z,23.73
2018-04-11T09:44:41.005Z,23.83
2018-04-11T09:45:41.002Z,23.83
2018-04-11T09:46:41.311Z,24.11
2018-04-11T09:47:41.062Z,24.43
2018-04-11T09:48:41.472Z,24.51
2018-04-11T09:49:41.372Z,24.65
2018-04-11T09:50:41.153Z,24.54
2018-04-11T09:51:41.180Z,24.63
2018-04-11T09:52:41.479Z,24.54
2018-04-11T09:53:41.289Z,24.68
2018-04-11T09:54:41.529Z,24.86
2018-04-11T09:55:41.297Z,24.81
2018-04-11T09:56:41.583Z,25.08
2018-04-11T09:57:41.358Z,25.1
2018-04-11T09:58:41.646Z,25.22
2018-04-11T09:59:41.420Z,25.11
2018-04-11T10:00:41.453Z,25.16
2018-04-11T10:01:41.728Z,25.13
2018-04-11T10:02:41.772Z,24.3
2018-04-11T10:03:41.790Z,24.26
2018-04-11T10:04:41.568Z,24.03
2018-04-11T10:05:41.341Z,24.13
2018-04-11T10:06:41.970Z,24.38
2018-04-11T10:07:41.654Z,24.73
2018-04-11T10:08:41.985Z,24.8
2018-04-11T10:09:41.968Z,24.86
2018-04-11T10:10:41.989Z,24.95
2018-04-11T10:11:42.030Z,25.13
2018-04-11T10:12:42.051Z,25.41
2018-04-11T10:13:41.885Z,25.43
2018-04-11T10:14:42.111Z,25.58
2018-04-11T10:15:42.146Z,25.7
2018-04-11T10:16:42.176Z,25.78
2018-04-11T10:17:42.204Z,25.72
2018-04-11T10:18:41.721Z,25.55
2018-04-11T10:19:42.259Z,25.54
2018-04-11T10:20:42.298Z,25.41
2018-04-11T10:21:42.321Z,25.4
2018-04-11T10:22:42.348Z,25.36
2018-04-11T10:23:42.125Z,25.54
2018-04-11T10:24:42.240Z,25.87
2018-04-11T10:25:42.439Z,26.26
2018-04-11T10:26:42.220Z,26.47
2018-04-11T10:27:42.504Z,26.89
2018-04-11T10:28:42.579Z,27.17
2018-04-11T10:29:42.570Z,27.2
2018-04-11T10:30:42.337Z,27.05
2018-04-11T10:31:42.400Z,26.81
2018-04-11T10:32:42.415Z,26.9
2018-04-11T10:33:42.515Z,27.27
2018-04-11T10:34:42.457Z,27.32
2018-04-11T10:35:42.743Z,27.42
2018-04-11T10:36:42.780Z,27.7
2018-04-11T10:37:42.810Z,27.92
2018-04-11T10:38:42.844Z,28.25
2018-04-11T10:39:42.663Z,28.11
2018-04-11T10:40:42.651Z,28.17
2018-04-11T10:41:42.937Z,28.14
2018-04-11T10:42:42.969Z,27.9
2018-04-11T10:43:42.893Z,27.74
2018-04-11T10:44:42.781Z,27.55
2018-04-11T10:45:42.555Z,27.78
2018-04-11T10:46:43.093Z,27.42
2018-04-11T10:47:42.614Z,27.85
2018-04-11T10:48:43.156Z,27.7
2018-04-11T10:49:43.189Z,27.7
2018-04-11T10:50:43.223Z,27.64
2018-04-11T10:51:43.254Z,27.45
2018-04-11T10:52:43.335Z,27.18
2018-04-11T10:53:43.316Z,27.2
2018-04-11T10:54:43.343Z,27.15
2018-04-11T10:55:43.372Z,27.44
2018-04-11T10:56:43.147Z,27.39
2018-04-11T10:57:43.437Z,27.68
2018-04-11T10:58:43.516Z,27.96
2018-04-11T10:59:43.498Z,28.47
2018-04-11T11:00:43.272Z,28.45
2018-04-11T11:01:43.560Z,28.97
2018-04-11T11:02:43.598Z,29.54
2018-04-11T11:03:43.629Z,29.94
2018-04-11T11:04:43.658Z,30.35
2018-04-11T11:05:43.693Z,30.46
2018-04-11T11:06:43.722Z,30.83
2018-04-11T11:07:43.755Z,30.66
2018-04-11T11:08:43.585Z,30.54
2018-04-11T11:09:44.033Z,30.75
2018-04-11T11:10:43.352Z,31.15
2018-04-11T11:11:43.885Z,31.25
2018-04-11T11:12:43.664Z,30.77
2018-04-11T11:13:43.954Z,30.1
2018-04-11T11:14:43.988Z,30.4
2018-04-11T11:15:44.025Z,30.32
2018-04-11T11:16:44.057Z,30.54
2018-04-11T11:17:43.830Z,30.61
2018-04-11T11:18:44.116Z,30.83
2018-04-11T11:19:44.148Z,30.85
2018-04-11T11:20:44.182Z,31.14
2018-04-11T11:21:44.216Z,31.09
2018-04-11T11:22:44.256Z,31.02
2018-04-11T11:23:44.336Z,30.69
2018-04-11T11:24:44.319Z,30.61
2018-04-11T11:25:44.101Z,30.43
2018-04-11T11:26:44.386Z,30.02
2018-04-11T11:27:44.169Z,29.88
2018-04-11T11:28:44.450Z,29.94
2018-04-11T11:29:44.493Z,30.4
2018-04-11T11:30:44.568Z,30.92
2018-04-11T11:31:44.548Z,31.49
2018-04-11T11:32:44.582Z,31.55
2018-04-11T11:33:44.109Z,31.36
2018-04-11T11:34:44.663Z,31.33
2018-04-11T11:35:44.433Z,31.4
2018-04-11T11:36:44.717Z,31.7
2018-04-11T11:37:44.747Z,32
2018-04-11T11:38:44.566Z,32.27
2018-04-11T11:39:44.313Z,32.36
2018-04-11T11:40:44.851Z,32.68
2018-04-11T11:41:44.678Z,33.02
2018-04-11T11:42:44.666Z,33.52
2018-04-11T11:43:44.697Z,33.92
2018-04-11T11:44:44.480Z,34.06
2018-04-11T11:45:45.030Z,34.42
2018-04-11T11:46:44.800Z,34.7
2018-04-11T11:47:45.129Z,34.99
2018-04-11T11:48:45.121Z,35.41
2018-04-11T11:49:44.903Z,35.44
2018-04-11T11:50:44.949Z,35.42
2018-04-11T11:51:45.243Z,35.6
2018-04-11T11:52:45.256Z,35.95
2018-04-11T11:53:45.296Z,36.25
2018-04-11T11:54:45.329Z,36.17
2018-04-11T11:55:45.111Z,36.31
2018-04-11T11:56:45.202Z,35.88
2018-04-11T11:57:45.436Z,35.86
2018-04-11T11:58:45.216Z,35.83
2018-04-11T11:59:45.251Z,35.76
2018-04-11T12:00:45.547Z,35.04
2018-04-11T12:01:45.327Z,34.83
2018-04-11T12:02:45.358Z,35.11
2018-04-11T12:03:45.400Z,34.8
2018-04-11T12:04:45.182Z,35.19
2018-04-11T12:05:45.465Z,35.52
2018-04-11T12:06:45.501Z,35.67
2018-04-11T12:07:45.535Z,36.18
2018-04-11T12:08:45.837Z,35.9
2018-04-11T12:09:45.860Z,36
2018-04-11T12:10:45.902Z,36.28
2018-04-11T12:11:45.979Z,35.85
2018-04-11T12:12:45.966Z,36.09
2018-04-11T12:13:46.006Z,36.09
2018-04-11T12:14:46.043Z,36.65
2018-04-11T12:15:46.078Z,36.86
2018-04-11T12:16:46.165Z,37.07
2018-04-11T12:17:46.162Z,37.01
2018-04-11T12:18:45.931Z,37.29
2018-04-11T12:19:46.227Z,37.23
2018-04-11T12:20:46.001Z,37.11
2018-04-11T12:21:46.299Z,36.73
2018-04-11T12:22:46.332Z,35.52
2018-04-11T12:23:46.372Z,34.93
2018-04-11T12:24:46.155Z,34.43
2018-04-11T12:25:46.190Z,34.5
2018-04-11T12:26:46.585Z,35.14
2018-04-11T12:27:46.539Z,35.56
2018-04-11T12:28:46.550Z,35.82
2018-04-11T12:29:46.582Z,36.43
2018-04-11T12:30:46.628Z,36.65
2018-04-11T12:31:46.708Z,37.26
2018-04-11T12:32:46.434Z,37.28
2018-04-11T12:33:46.727Z,37.25
2018-04-11T12:34:46.761Z,37.65
2018-04-11T12:35:46.792Z,37.77
2018-04-11T12:36:46.580Z,37.75
2018-04-11T12:37:46.614Z,38.08
2018-04-11T12:38:46.901Z,38.27
2018-04-11T12:39:46.941Z,38.27
2018-04-11T12:40:46.723Z,37.86
2018-04-11T12:41:47.017Z,37.44
2018-04-11T12:42:46.791Z,37.29
2018-04-11T12:43:46.831Z,37.1
2018-04-11T12:44:46.870Z,37.68
2018-04-11T12:45:46.904Z,37.77
2018-04-11T12:46:47.253Z,38.2
2018-04-11T12:47:46.979Z,38.67
2018-04-11T12:48:47.269Z,38.55
2018-04-11T12:49:47.439Z,38.4
2018-04-11T12:50:47.092Z,37.96
2018-04-11T12:51:47.375Z,38.01
2018-04-11T12:52:47.418Z,37.08
2018-04-11T12:53:47.448Z,36.96
2018-04-11T12:54:47.232Z,37.06
2018-04-11T12:55:47.573Z,37.53